createdAt,value
2022-09-28T00:02:17.615Z,5.93
2022-09-28T00:05:27.012Z,6.13
2022-09-28T00:08:33.673Z,6.97
2022-09-28T00:11:40.255Z,9.37
2022-09-28T00:14:48.189Z,8.07
2022-09-28T00:17:54.681Z,22.57
2022-09-28T00:21:02.889Z,6.40
2022-09-28T00:24:20.535Z,6.10
2022-09-28T00:27:28.162Z,5.00
2022-09-28T00:30:35.563Z,5.57
2022-09-28T00:33:42.020Z,5.77
2022-09-28T00:36:49.343Z,5.10
2022-09-28T00:39:55.863Z,3.30
2022-09-28T00:43:19.995Z,4.67
2022-09-28T00:46:33.142Z,3.53
2022-09-28T00:49:45.226Z,3.87
2022-09-28T00:52:56.845Z,6.50
2022-09-28T00:56:07.573Z,4.70
2022-09-28T00:59:13.808Z,20.43
2022-09-28T01:02:22.508Z,7.43
2022-09-28T01:05:29.581Z,4.27
2022-09-28T01:08:37.298Z,4.30
2022-09-28T01:11:44.378Z,3.67
2022-09-28T01:14:52.124Z,4.10
2022-09-28T01:18:10.025Z,3.83
2022-09-28T01:21:20.227Z,4.17
2022-09-28T01:24:43.280Z,4.30
2022-09-28T01:27:55.627Z,13.13
2022-09-28T01:31:08.009Z,5.07
2022-09-28T01:34:20.076Z,4.87
2022-09-28T01:37:32.192Z,4.90
2022-09-28T01:40:39.950Z,6.03
2022-09-28T01:43:51.811Z,5.07
2022-09-28T01:47:04.361Z,4.57
2022-09-28T01:50:13.320Z,5.10
2022-09-28T01:53:24.388Z,5.33
2022-09-28T01:56:38.745Z,5.20
2022-09-28T01:59:54.651Z,5.10
2022-09-28T02:03:08.364Z,4.80
2022-09-28T02:06:20.864Z,5.30
2022-09-28T02:09:33.876Z,5.47
2022-09-28T02:12:45.152Z,10.87
2022-09-28T02:15:59.858Z,5.47
2022-09-28T02:19:08.028Z,5.60
2022-09-28T02:22:23.581Z,5.27
2022-09-28T02:25:35.944Z,5.63
2022-09-28T02:28:42.303Z,5.53
2022-09-28T02:31:50.428Z,6.47
2022-09-28T02:34:57.029Z,5.73
2022-09-28T02:38:03.605Z,6.00
2022-09-28T02:41:19.734Z,6.37
2022-09-28T02:44:57.702Z,13.23
2022-09-28T02:48:19.149Z,5.37
2022-09-28T02:51:42.133Z,5.90
2022-09-28T02:55:18.237Z,6.00
2022-09-28T02:58:36.802Z,18.53
2022-09-28T03:01:52.599Z,4.70
2022-09-28T03:05:16.896Z,4.87
2022-09-28T03:08:29.184Z,4.97
2022-09-28T03:11:42.213Z,5.53
2022-09-28T03:14:48.440Z,5.83
2022-09-28T03:17:54.930Z,5.70
2022-09-28T03:21:05.127Z,5.63
2022-09-28T03:24:11.723Z,6.00
2022-09-28T03:27:18.027Z,5.40
2022-09-28T03:30:24.379Z,20.33
2022-09-28T03:33:30.805Z,4.53
2022-09-28T03:36:38.909Z,4.43
2022-09-28T03:39:45.238Z,11.20
2022-09-28T03:42:51.416Z,6.03
2022-09-28T03:45:58.951Z,7.40
2022-09-28T03:49:05.579Z,5.07
2022-09-28T03:52:14.563Z,4.77
2022-09-28T03:55:20.576Z,6.10
2022-09-28T03:58:29.633Z,5.93
2022-09-28T04:01:36.175Z,7.70
2022-09-28T04:04:42.437Z,3.70
2022-09-28T04:07:50.316Z,4.53
2022-09-28T04:10:58.607Z,4.57
2022-09-28T04:14:05.538Z,4.93
2022-09-28T04:17:11.718Z,5.17
2022-09-28T04:20:18.214Z,5.40
2022-09-28T04:23:25.631Z,4.27
2022-09-28T04:26:31.971Z,4.37
2022-09-28T04:29:38.995Z,5.80
2022-09-28T04:32:45.023Z,7.57
2022-09-28T04:35:51.030Z,7.77
2022-09-28T04:38:58.871Z,8.10
2022-09-28T04:42:05.675Z,13.20
2022-09-28T04:45:12.537Z,7.73
2022-09-28T04:48:18.635Z,19.00
2022-09-28T04:51:24.755Z,10.17
2022-09-28T04:54:32.386Z,8.67
2022-09-28T04:57:38.555Z,11.67
2022-09-28T05:00:44.936Z,5.90
2022-09-28T05:03:51.211Z,5.40
2022-09-28T05:06:57.513Z,7.53
2022-09-28T05:10:05.541Z,5.10
2022-09-28T05:13:13.483Z,4.20
2022-09-28T05:16:20.565Z,3.73
2022-09-28T05:19:26.606Z,3.57
2022-09-28T05:22:34.691Z,4.23
2022-09-28T05:25:42.693Z,4.67
2022-09-28T05:28:48.767Z,6.73
2022-09-28T05:31:55.092Z,13.87
2022-09-28T05:35:01.961Z,5.10
2022-09-28T05:38:08.430Z,5.07
2022-09-28T05:41:16.195Z,4.13
2022-09-28T05:44:22.245Z,4.97
2022-09-28T05:47:28.938Z,8.53
2022-09-28T05:50:35.302Z,5.80
2022-09-28T05:53:41.722Z,4.17
2022-09-28T05:56:49.373Z,5.23
2022-09-28T05:59:55.429Z,6.83
2022-09-28T06:03:06.694Z,6.00
2022-09-28T06:06:14.831Z,12.20
2022-09-28T06:09:25.696Z,3.67
2022-09-28T06:12:35.368Z,4.03
2022-09-28T06:15:44.274Z,3.93
2022-09-28T06:18:50.370Z,5.73
2022-09-28T06:21:59.201Z,5.30
2022-09-28T06:25:06.891Z,4.00
2022-09-28T06:28:15.830Z,3.80
2022-09-28T06:31:23.894Z,5.13
2022-09-28T06:34:30.298Z,4.33
2022-09-28T06:37:36.758Z,4.20
2022-09-28T06:40:42.973Z,5.80
2022-09-28T06:43:50.657Z,4.70
2022-09-28T06:46:57.208Z,3.93
2022-09-28T06:50:03.496Z,3.87
2022-09-28T06:53:13.696Z,4.40
2022-09-28T06:56:21.207Z,4.03
2022-09-28T06:59:29.981Z,4.87
2022-09-28T07:02:36.147Z,5.60
2022-09-28T07:05:44.509Z,8.60
2022-09-28T07:09:01.343Z,4.93
2022-09-28T07:12:16.691Z,7.43
2022-09-28T07:15:25.099Z,5.70
2022-09-28T07:18:31.408Z,7.97
2022-09-28T07:21:37.811Z,4.57
2022-09-28T07:24:44.755Z,5.57
2022-09-28T12:06:51.304Z,3.20
2022-09-28T12:10:01.570Z,3.37
2022-09-28T12:13:13.024Z,3.97
2022-09-28T12:17:00.900Z,3.53
2022-09-28T12:19:58.168Z,2.80
2022-09-28T12:23:12.637Z,2.83
2022-09-28T12:26:37.195Z,3.27
2022-09-28T12:29:48.759Z,3.10
2022-09-28T12:33:01.438Z,3.47
2022-09-28T12:36:21.747Z,3.37
2022-09-28T12:39:57.132Z,2.97
2022-09-28T12:43:40.683Z,2.78
2022-09-28T12:46:59.585Z,3.20
2022-09-28T12:50:38.099Z,3.90
2022-09-28T12:54:07.907Z,6.17
2022-09-28T12:57:39.422Z,3.40
2022-09-28T13:00:57.459Z,3.40
2022-09-28T13:04:30.407Z,4.13
2022-09-28T13:07:49.896Z,2.97
2022-09-28T13:11:09.843Z,3.33
2022-09-28T13:14:55.671Z,3.70
2022-09-28T13:18:10.004Z,3.43
2022-09-28T13:21:28.434Z,3.50
2022-09-28T13:24:41.834Z,4.03
2022-09-28T13:27:53.197Z,3.80
2022-09-28T13:31:02.459Z,5.17
2022-09-28T13:34:14.770Z,3.70
2022-09-28T13:37:24.664Z,3.80
2022-09-28T13:41:12.851Z,3.90
2022-09-28T13:44:35.146Z,3.53
2022-09-28T13:48:05.381Z,5.63
2022-09-28T13:51:25.998Z,3.50
2022-09-28T13:54:56.595Z,3.83
2022-09-28T13:58:06.752Z,4.10
2022-09-28T14:01:17.496Z,3.93
2022-09-28T14:04:26.199Z,3.90
2022-09-28T14:08:11.109Z,10.50
2022-09-28T14:11:43.839Z,4.00
2022-09-28T14:14:52.451Z,3.60
2022-09-28T14:18:08.463Z,3.90
2022-09-28T14:21:33.013Z,10.77
2022-09-28T14:24:56.713Z,3.77
2022-09-28T14:28:20.743Z,2.77
2022-09-28T14:31:30.126Z,3.40
2022-09-28T14:34:42.803Z,3.97
2022-09-28T14:38:11.970Z,3.10
2022-09-28T14:41:31.441Z,3.50
2022-09-28T14:45:30.286Z,3.80
2022-09-28T14:48:49.424Z,9.87
2022-09-28T14:52:04.822Z,4.70
2022-09-28T14:55:17.107Z,4.43
2022-09-28T14:58:25.782Z,3.90
2022-09-28T15:01:32.354Z,3.90
2022-09-28T15:04:43.865Z,4.70
2022-09-28T15:07:51.969Z,5.63
2022-09-28T15:11:02.041Z,4.30
2022-09-28T15:14:10.893Z,4.63
2022-09-28T15:17:22.479Z,9.37
2022-09-28T15:20:34.830Z,4.60
2022-09-28T15:23:43.338Z,4.50
2022-09-28T15:26:49.490Z,5.10
2022-09-28T15:29:59.823Z,11.57
2022-09-28T15:33:23.858Z,6.90
2022-09-28T15:36:33.952Z,7.07
2022-09-28T15:39:40.371Z,6.37
2022-09-28T15:42:47.375Z,4.10
2022-09-28T15:46:03.028Z,4.47
2022-09-28T15:49:24.378Z,3.80
2022-09-28T15:52:38.803Z,5.87
2022-09-28T15:55:46.412Z,11.33
2022-09-28T15:59:10.778Z,12.03
2022-09-28T16:02:19.529Z,75.40
2022-09-28T16:05:41.991Z,38.90
2022-09-28T16:08:49.730Z,20.23
2022-09-28T16:11:56.335Z,25.13
2022-09-28T16:15:07.634Z,8.20
2022-09-28T16:18:22.208Z,7.93
2022-09-28T16:21:39.305Z,14.60
2022-09-28T16:24:55.905Z,17.37
2022-09-28T16:28:02.154Z,19.63
2022-09-28T16:31:27.433Z,27.70
2022-09-28T16:34:33.771Z,13.17
2022-09-28T16:37:42.662Z,15.10
2022-09-28T16:40:52.791Z,8.10
2022-09-28T16:44:01.333Z,5.53
2022-09-28T16:47:08.023Z,6.40
2022-09-28T16:50:17.029Z,6.03
2022-09-28T16:53:40.571Z,4.70
2022-09-28T16:56:48.057Z,4.20
2022-09-28T16:59:54.210Z,11.93
2022-09-28T17:03:00.885Z,7.30
2022-09-28T17:06:07.740Z,9.87
2022-09-28T17:09:14.461Z,6.83
2022-09-28T17:12:24.589Z,11.23
2022-09-28T17:15:30.926Z,33.97
2022-09-28T17:18:37.951Z,36.50
2022-09-28T17:21:44.475Z,77.90
2022-09-28T17:24:50.731Z,75.20
2022-09-28T17:27:59.526Z,81.07
2022-09-28T17:31:08.109Z,80.83
2022-09-28T17:34:16.659Z,77.93
2022-09-28T17:37:22.882Z,57.50
2022-09-28T17:40:30.983Z,62.43
2022-09-28T17:43:38.455Z,38.07
2022-09-28T17:46:48.712Z,11.63
2022-09-28T17:49:55.307Z,13.20
2022-09-28T17:53:06.022Z,10.27
2022-09-28T17:56:12.259Z,24.87
2022-09-28T17:59:20.195Z,40.40
2022-09-28T18:02:26.704Z,29.50
2022-09-28T18:05:33.103Z,26.97
2022-09-28T18:08:39.487Z,18.53
2022-09-28T18:11:46.660Z,19.63
2022-09-28T18:14:54.595Z,26.53
2022-09-28T18:18:01.006Z,21.10
2022-09-28T18:21:07.612Z,23.70
2022-09-28T18:24:13.795Z,21.20
2022-09-28T18:27:20.406Z,15.33
2022-09-28T18:30:29.289Z,20.17
2022-09-28T18:33:35.345Z,17.77
2022-09-28T18:36:41.659Z,9.63
2022-09-28T18:39:47.986Z,8.47
2022-09-28T18:42:54.346Z,9.13
2022-09-28T18:46:07.253Z,11.60
2022-09-28T18:49:13.675Z,15.23
2022-09-28T18:52:20.066Z,18.50
2022-09-28T18:55:26.439Z,13.93
2022-09-28T18:58:35.775Z,12.97
2022-09-28T19:01:43.384Z,17.20
2022-09-28T19:04:49.601Z,13.33
2022-09-28T19:07:56.283Z,17.17
2022-09-28T19:11:07.572Z,7.13
2022-09-28T19:14:15.126Z,9.00
2022-09-28T19:17:22.670Z,8.67
2022-09-28T19:20:29.161Z,9.60
2022-09-28T19:23:36.786Z,13.43
2022-09-28T19:30:08.871Z,24.67
2022-09-28T19:33:17.643Z,26.67
2022-09-28T19:36:26.342Z,21.87
2022-09-28T19:39:33.485Z,26.90
2022-09-28T19:42:40.106Z,20.57
2022-09-28T19:45:47.019Z,15.93
2022-09-28T19:48:56.655Z,22.83
2022-09-28T19:52:18.716Z,45.70
2022-09-28T19:55:25.290Z,43.57
2022-09-28T19:58:33.629Z,25.13
2022-09-28T20:01:39.978Z,23.33
2022-09-28T20:04:47.601Z,16.20
2022-09-28T20:07:53.782Z,24.53
2022-09-28T20:11:00.759Z,27.37
2022-09-28T20:14:09.778Z,50.67
2022-09-28T20:17:16.044Z,14.13
2022-09-28T20:20:23.815Z,13.03
2022-09-28T20:23:30.303Z,24.00
2022-09-28T20:26:37.963Z,10.20
2022-09-28T20:29:44.248Z,32.93
2022-09-28T20:32:50.540Z,18.13
2022-09-28T20:35:59.484Z,19.07
2022-09-28T20:39:05.979Z,21.17
2022-09-28T20:42:12.031Z,24.80
2022-09-28T20:45:18.806Z,18.23
2022-09-28T20:48:25.608Z,15.33
2022-09-28T20:51:33.467Z,21.60
2022-09-28T20:54:39.523Z,14.13
2022-09-28T20:57:46.298Z,20.00
2022-09-28T21:00:52.429Z,15.57
2022-09-28T21:04:00.037Z,9.97
2022-09-28T21:07:07.505Z,15.07
2022-09-28T21:10:13.767Z,26.27
2022-09-28T21:13:19.647Z,13.97
2022-09-28T21:16:27.230Z,8.63
2022-09-28T21:19:33.634Z,7.23
2022-09-28T21:22:41.692Z,11.23
2022-09-28T21:25:48.217Z,8.73
2022-09-28T21:28:55.615Z,7.37
2022-09-28T21:32:02.277Z,19.07
2022-09-28T21:35:09.206Z,11.93
2022-09-28T21:38:17.091Z,5.77
2022-09-28T21:41:23.948Z,7.30
2022-09-28T21:44:30.397Z,6.50
2022-09-28T21:47:36.802Z,7.57
2022-09-28T21:50:43.083Z,9.57
2022-09-28T21:53:50.922Z,9.33
2022-09-28T21:56:57.123Z,6.73
2022-09-28T22:00:03.766Z,5.33
2022-09-28T22:03:10.293Z,6.63
2022-09-28T22:06:17.938Z,9.83
2022-09-28T22:09:25.519Z,13.23
2022-09-28T22:12:31.892Z,11.80
2022-09-28T22:15:38.055Z,8.73
2022-09-28T22:18:44.953Z,10.47
2022-09-28T22:21:50.878Z,12.53
2022-09-28T22:24:58.491Z,11.87
2022-09-28T22:28:04.931Z,12.67
2022-09-28T22:31:11.342Z,11.23
2022-09-28T22:34:17.503Z,10.03
2022-09-28T22:37:24.663Z,12.00
2022-09-28T22:40:32.433Z,11.77
2022-09-28T22:43:38.564Z,12.13
2022-09-28T22:46:44.932Z,12.07
2022-09-28T22:49:51.098Z,14.10
2022-09-28T22:52:57.467Z,6.13
2022-09-28T22:56:07.050Z,6.00
2022-09-28T22:59:13.635Z,10.43
2022-09-28T23:02:20.007Z,7.80
2022-09-28T23:05:26.506Z,6.07
2022-09-28T23:08:33.069Z,4.93
2022-09-28T23:11:40.935Z,6.47
2022-09-28T23:14:46.809Z,7.30
2022-09-28T23:17:53.315Z,9.57
2022-09-28T23:21:01.020Z,10.17
2022-09-28T23:24:07.472Z,5.83
2022-09-28T23:27:15.145Z,6.60
2022-09-28T23:30:23.367Z,11.03
2022-09-28T23:33:29.608Z,6.80
2022-09-28T23:36:35.981Z,4.13
2022-09-28T23:39:42.415Z,6.13
2022-09-28T23:42:49.812Z,6.07
2022-09-28T23:45:56.141Z,5.43
2022-09-28T23:49:02.498Z,7.63
2022-09-28T23:52:09.047Z,7.83
2022-09-28T23:55:15.308Z,7.50
2022-09-28T23:58:23.223Z,11.47
